sensor_id;sensor_type;location;lat;lon;timestamp;P1;durP1;ratioP1;P2;durP2;ratioP2
75772;SDS011;64381;0.000;0.000;2023-05-01T00:01:01;5.30;;;3.37;;
75772;SDS011;64381;0.000;0.000;2023-05-01T00:03:27;6.33;;;3.37;;
75772;SDS011;64381;0.000;0.000;2023-05-01T00:05:58;6.80;;;3.63;;
75772;SDS011;64381;0.000;0.000;2023-05-01T00:08:27;7.97;;;3.60;;
75772;SDS011;64381;0.000;0.000;2023-05-01T00:10:52;6.88;;;3.50;;
75772;SDS011;64381;0.000;0.000;2023-05-01T00:13:18;6.20;;;3.30;;
75772;SDS011;64381;0.000;0.000;2023-05-01T00:15:43;5.60;;;3.30;;
75772;SDS011;64381;0.000;0.000;2023-05-01T00:18:08;4.70;;;3.20;;
75772;SDS011;64381;0.000;0.000;2023-05-01T00:20:33;5.20;;;3.57;;
75772;SDS011;64381;0.000;0.000;2023-05-01T00:22:58;5.73;;;3.23;;
75772;SDS011;64381;0.000;0.000;2023-05-01T00:25:24;6.00;;;3.47;;
75772;SDS011;64381;0.000;0.000;2023-05-01T00:27:49;6.33;;;3.47;;
75772;SDS011;64381;0.000;0.000;2023-05-01T00:30:14;5.47;;;3.90;;
75772;SDS011;64381;0.000;0.000;2023-05-01T00:32:39;7.80;;;3.87;;
75772;SDS011;64381;0.000;0.000;2023-05-01T00:35:05;5.70;;;3.63;;
75772;SDS011;64381;0.000;0.000;2023-05-01T00:37:30;5.77;;;3.40;;
75772;SDS011;64381;0.000;0.000;2023-05-01T00:39:55;5.40;;;3.63;;
75772;SDS011;64381;0.000;0.000;2023-05-01T00:42:21;6.80;;;4.00;;
75772;SDS011;64381;0.000;0.000;2023-05-01T00:44:46;6.33;;;3.80;;
75772;SDS011;64381;0.000;0.000;2023-05-01T00:47:11;6.90;;;3.90;;
75772;SDS011;64381;0.000;0.000;2023-05-01T00:49:37;5.83;;;3.57;;
75772;SDS011;64381;0.000;0.000;2023-05-01T00:52:02;6.13;;;3.63;;
75772;SDS011;64381;0.000;0.000;2023-05-01T00:54:27;7.53;;;4.47;;
75772;SDS011;64381;0.000;0.000;2023-05-01T00:56:53;7.47;;;4.00;;
75772;SDS011;64381;0.000;0.000;2023-05-01T00:59:18;5.90;;;3.70;;
75772;SDS011;64381;0.000;0.000;2023-05-01T01:01:43;6.57;;;3.87;;
75772;SDS011;64381;0.000;0.000;2023-05-01T01:04:09;6.63;;;4.10;;
75772;SDS011;64381;0.000;0.000;2023-05-01T01:15:00;6.88;;;3.72;;
75772;SDS011;64381;0.000;0.000;2023-05-01T01:17:52;6.75;;;4.03;;
75772;SDS011;64381;0.000;0.000;2023-05-01T01:20:29;6.17;;;3.93;;
75772;SDS011;64381;0.000;0.000;2023-05-01T01:23:23;6.32;;;3.67;;
75772;SDS011;64381;0.000;0.000;2023-05-01T01:26:04;6.97;;;3.70;;
75772;SDS011;64381;0.000;0.000;2023-05-01T01:33:59;7.37;;;4.07;;
75772;SDS011;64381;0.000;0.000;2023-05-01T01:39:15;5.18;;;3.50;;
75772;SDS011;64381;0.000;0.000;2023-05-01T01:41:49;5.30;;;3.53;;
75772;SDS011;64381;0.000;0.000;2023-05-01T01:44:21;5.20;;;3.63;;
75772;SDS011;64381;0.000;0.000;2023-05-01T01:46:52;5.43;;;3.50;;
75772;SDS011;64381;0.000;0.000;2023-05-01T01:49:19;5.40;;;3.80;;
75772;SDS011;64381;0.000;0.000;2023-05-01T01:51:47;5.78;;;3.70;;
75772;SDS011;64381;0.000;0.000;2023-05-01T01:54:14;6.00;;;3.65;;
75772;SDS011;64381;0.000;0.000;2023-05-01T01:56:41;6.57;;;3.77;;
75772;SDS011;64381;0.000;0.000;2023-05-01T01:59:09;6.55;;;3.60;;
75772;SDS011;64381;0.000;0.000;2023-05-01T02:01:35;5.57;;;3.92;;
75772;SDS011;64381;0.000;0.000;2023-05-01T02:04:03;5.60;;;3.42;;
75772;SDS011;64381;0.000;0.000;2023-05-01T02:06:29;6.45;;;3.90;;
75772;SDS011;64381;0.000;0.000;2023-05-01T02:08:56;5.50;;;3.57;;
75772;SDS011;64381;0.000;0.000;2023-05-01T02:11:22;6.53;;;3.60;;
75772;SDS011;64381;0.000;0.000;2023-05-01T02:13:49;6.15;;;3.85;;
75772;SDS011;64381;0.000;0.000;2023-05-01T02:16:15;6.20;;;3.50;;
75772;SDS011;64381;0.000;0.000;2023-05-01T02:18:41;6.43;;;3.80;;
75772;SDS011;64381;0.000;0.000;2023-05-01T02:21:09;5.95;;;3.80;;
75772;SDS011;64381;0.000;0.000;2023-05-01T02:23:36;5.90;;;3.88;;
75772;SDS011;64381;0.000;0.000;2023-05-01T02:26:02;6.57;;;3.67;;
75772;SDS011;64381;0.000;0.000;2023-05-01T02:28:29;7.13;;;4.00;;
75772;SDS011;64381;0.000;0.000;2023-05-01T02:30:55;6.50;;;3.80;;
75772;SDS011;64381;0.000;0.000;2023-05-01T02:33:20;5.70;;;3.80;;
75772;SDS011;64381;0.000;0.000;2023-05-01T02:35:45;5.50;;;3.70;;
75772;SDS011;64381;0.000;0.000;2023-05-01T02:38:11;6.27;;;3.80;;
75772;SDS011;64381;0.000;0.000;2023-05-01T02:40:36;5.90;;;4.10;;
75772;SDS011;64381;0.000;0.000;2023-05-01T02:43:03;5.45;;;3.75;;
75772;SDS011;64381;0.000;0.000;2023-05-01T02:45:35;6.27;;;3.90;;
75772;SDS011;64381;0.000;0.000;2023-05-01T02:48:02;6.15;;;3.72;;
75772;SDS011;64381;0.000;0.000;2023-05-01T02:50:29;6.90;;;3.90;;
75772;SDS011;64381;0.000;0.000;2023-05-01T02:52:55;6.43;;;4.10;;
75772;SDS011;64381;0.000;0.000;2023-05-01T02:55:21;5.63;;;3.40;;
75772;SDS011;64381;0.000;0.000;2023-05-01T02:57:49;6.20;;;3.60;;
75772;SDS011;64381;0.000;0.000;2023-05-01T03:00:14;6.00;;;3.58;;
75772;SDS011;64381;0.000;0.000;2023-05-01T03:02:40;5.17;;;3.63;;
75772;SDS011;64381;0.000;0.000;2023-05-01T03:05:05;5.77;;;3.30;;
75772;SDS011;64381;0.000;0.000;2023-05-01T03:07:31;5.93;;;3.55;;
75772;SDS011;64381;0.000;0.000;2023-05-01T03:09:56;6.40;;;3.67;;
75772;SDS011;64381;0.000;0.000;2023-05-01T03:12:21;5.67;;;3.60;;
75772;SDS011;64381;0.000;0.000;2023-05-01T03:14:46;5.80;;;3.80;;
75772;SDS011;64381;0.000;0.000;2023-05-01T03:17:11;6.00;;;3.50;;
75772;SDS011;64381;0.000;0.000;2023-05-01T03:19:37;5.27;;;3.20;;
75772;SDS011;64381;0.000;0.000;2023-05-01T03:22:02;6.83;;;3.70;;
75772;SDS011;64381;0.000;0.000;2023-05-01T03:24:27;6.33;;;3.80;;
75772;SDS011;64381;0.000;0.000;2023-05-01T03:26:52;5.90;;;3.70;;
75772;SDS011;64381;0.000;0.000;2023-05-01T03:29:17;4.93;;;3.33;;
75772;SDS011;64381;0.000;0.000;2023-05-01T03:31:43;5.77;;;3.50;;
75772;SDS011;64381;0.000;0.000;2023-05-01T03:34:08;5.23;;;3.37;;
75772;SDS011;64381;0.000;0.000;2023-05-01T03:36:33;5.57;;;3.50;;
75772;SDS011;64381;0.000;0.000;2023-05-01T03:38:58;5.33;;;3.60;;
75772;SDS011;64381;0.000;0.000;2023-05-01T03:41:23;6.03;;;3.67;;
75772;SDS011;64381;0.000;0.000;2023-05-01T03:43:49;5.53;;;3.50;;
75772;SDS011;64381;0.000;0.000;2023-05-01T03:46:14;4.80;;;3.40;;
75772;SDS011;64381;0.000;0.000;2023-05-01T03:48:39;5.03;;;3.50;;
75772;SDS011;64381;0.000;0.000;2023-05-01T03:51:04;6.53;;;3.60;;
75772;SDS011;64381;0.000;0.000;2023-05-01T03:53:30;5.43;;;3.50;;
75772;SDS011;64381;0.000;0.000;2023-05-01T03:55:55;5.70;;;3.50;;
75772;SDS011;64381;0.000;0.000;2023-05-01T03:58:20;5.57;;;3.40;;
75772;SDS011;64381;0.000;0.000;2023-05-01T04:00:45;4.90;;;3.47;;
75772;SDS011;64381;0.000;0.000;2023-05-01T04:03:10;7.17;;;3.73;;
75772;SDS011;64381;0.000;0.000;2023-05-01T04:05:36;4.90;;;3.43;;
75772;SDS011;64381;0.000;0.000;2023-05-01T04:08:01;5.67;;;3.87;;
75772;SDS011;64381;0.000;0.000;2023-05-01T04:10:26;6.20;;;3.60;;
75772;SDS011;64381;0.000;0.000;2023-05-01T04:12:51;6.33;;;3.47;;
75772;SDS011;64381;0.000;0.000;2023-05-01T04:15:16;5.90;;;3.53;;
75772;SDS011;64381;0.000;0.000;2023-05-01T04:17:42;5.33;;;3.53;;
75772;SDS011;64381;0.000;0.000;2023-05-01T04:20:07;6.07;;;3.70;;
75772;SDS011;64381;0.000;0.000;2023-05-01T04:22:32;6.10;;;3.70;;
75772;SDS011;64381;0.000;0.000;2023-05-01T04:24:58;7.17;;;3.60;;
75772;SDS011;64381;0.000;0.000;2023-05-01T04:27:23;5.90;;;3.70;;
75772;SDS011;64381;0.000;0.000;2023-05-01T04:29:48;5.57;;;3.77;;
75772;SDS011;64381;0.000;0.000;2023-05-01T04:32:14;5.27;;;3.67;;
75772;SDS011;64381;0.000;0.000;2023-05-01T04:34:39;5.63;;;3.90;;
75772;SDS011;64381;0.000;0.000;2023-05-01T04:37:04;5.70;;;3.60;;
75772;SDS011;64381;0.000;0.000;2023-05-01T04:39:29;6.40;;;4.00;;
75772;SDS011;64381;0.000;0.000;2023-05-01T04:41:55;5.33;;;3.70;;
75772;SDS011;64381;0.000;0.000;2023-05-01T04:44:20;5.63;;;3.77;;
75772;SDS011;64381;0.000;0.000;2023-05-01T04:46:45;5.57;;;3.80;;
75772;SDS011;64381;0.000;0.000;2023-05-01T04:49:10;6.70;;;3.77;;
75772;SDS011;64381;0.000;0.000;2023-05-01T04:51:36;5.07;;;3.50;;
75772;SDS011;64381;0.000;0.000;2023-05-01T04:54:01;5.93;;;3.90;;
75772;SDS011;64381;0.000;0.000;2023-05-01T04:56:26;5.73;;;3.67;;
75772;SDS011;64381;0.000;0.000;2023-05-01T04:58:51;7.17;;;3.67;;
75772;SDS011;64381;0.000;0.000;2023-05-01T05:01:16;7.17;;;3.97;;
75772;SDS011;64381;0.000;0.000;2023-05-01T05:03:42;5.60;;;3.90;;
75772;SDS011;64381;0.000;0.000;2023-05-01T05:06:07;6.27;;;4.00;;
75772;SDS011;64381;0.000;0.000;2023-05-01T05:08:32;5.73;;;3.90;;
75772;SDS011;64381;0.000;0.000;2023-05-01T05:10:58;6.00;;;4.10;;
75772;SDS011;64381;0.000;0.000;2023-05-01T05:13:23;7.37;;;4.07;;
75772;SDS011;64381;0.000;0.000;2023-05-01T05:15:48;7.67;;;4.30;;
75772;SDS011;64381;0.000;0.000;2023-05-01T05:18:13;6.60;;;4.10;;
75772;SDS011;64381;0.000;0.000;2023-05-01T05:20:39;6.03;;;3.90;;
75772;SDS011;64381;0.000;0.000;2023-05-01T05:23:04;6.37;;;4.40;;
75772;SDS011;64381;0.000;0.000;2023-05-01T05:25:29;7.00;;;4.30;;
75772;SDS011;64381;0.000;0.000;2023-05-01T05:27:54;6.30;;;4.20;;
75772;SDS011;64381;0.000;0.000;2023-05-01T05:30:20;5.80;;;3.92;;
75772;SDS011;64381;0.000;0.000;2023-05-01T05:32:45;6.20;;;4.13;;
75772;SDS011;64381;0.000;0.000;2023-05-01T05:35:10;6.47;;;4.13;;
75772;SDS011;64381;0.000;0.000;2023-05-01T05:37:36;6.73;;;4.60;;
75772;SDS011;64381;0.000;0.000;2023-05-01T05:40:01;6.10;;;4.17;;
75772;SDS011;64381;0.000;0.000;2023-05-01T05:42:26;8.07;;;4.20;;
75772;SDS011;64381;0.000;0.000;2023-05-01T05:44:51;6.10;;;4.27;;
75772;SDS011;64381;0.000;0.000;2023-05-01T05:47:17;6.13;;;3.63;;
75772;SDS011;64381;0.000;0.000;2023-05-01T05:49:42;7.50;;;4.27;;
75772;SDS011;64381;0.000;0.000;2023-05-01T05:52:07;6.20;;;4.07;;
75772;SDS011;64381;0.000;0.000;2023-05-01T05:54:32;7.80;;;4.07;;
75772;SDS011;64381;0.000;0.000;2023-05-01T05:56:57;7.43;;;4.23;;
75772;SDS011;64381;0.000;0.000;2023-05-01T05:59:23;6.33;;;4.20;;
75772;SDS011;64381;0.000;0.000;2023-05-01T06:01:48;6.13;;;3.90;;
75772;SDS011;64381;0.000;0.000;2023-05-01T06:04:13;5.63;;;3.77;;
75772;SDS011;64381;0.000;0.000;2023-05-01T06:06:38;5.73;;;4.03;;
75772;SDS011;64381;0.000;0.000;2023-05-01T06:09:03;6.33;;;3.90;;
75772;SDS011;64381;0.000;0.000;2023-05-01T06:11:29;6.67;;;4.10;;
75772;SDS011;64381;0.000;0.000;2023-05-01T06:13:54;6.57;;;4.00;;
75772;SDS011;64381;0.000;0.000;2023-05-01T06:16:19;6.70;;;4.10;;
75772;SDS011;64381;0.000;0.000;2023-05-01T06:18:44;6.80;;;4.07;;
75772;SDS011;64381;0.000;0.000;2023-05-01T06:21:09;6.00;;;4.00;;
75772;SDS011;64381;0.000;0.000;2023-05-01T06:23:35;6.40;;;4.03;;
75772;SDS011;64381;0.000;0.000;2023-05-01T06:26:00;6.73;;;3.90;;
75772;SDS011;64381;0.000;0.000;2023-05-01T06:28:25;7.53;;;3.97;;
75772;SDS011;64381;0.000;0.000;2023-05-01T06:30:50;7.67;;;4.10;;
75772;SDS011;64381;0.000;0.000;2023-05-01T06:33:15;6.77;;;3.87;;
75772;SDS011;64381;0.000;0.000;2023-05-01T06:35:41;5.93;;;3.67;;
75772;SDS011;64381;0.000;0.000;2023-05-01T06:38:06;6.43;;;3.77;;
75772;SDS011;64381;0.000;0.000;2023-05-01T06:40:31;6.33;;;3.90;;
75772;SDS011;64381;0.000;0.000;2023-05-01T06:42:56;6.07;;;3.97;;
75772;SDS011;64381;0.000;0.000;2023-05-01T06:45:22;6.60;;;3.97;;
75772;SDS011;64381;0.000;0.000;2023-05-01T06:47:47;5.53;;;3.80;;
75772;SDS011;64381;0.000;0.000;2023-05-01T06:50:12;6.63;;;3.77;;
75772;SDS011;64381;0.000;0.000;2023-05-01T06:52:38;6.67;;;3.90;;
75772;SDS011;64381;0.000;0.000;2023-05-01T06:55:04;6.70;;;3.70;;
75772;SDS011;64381;0.000;0.000;2023-05-01T06:57:29;5.90;;;3.72;;
75772;SDS011;64381;0.000;0.000;2023-05-01T06:59:55;5.70;;;3.47;;
75772;SDS011;64381;0.000;0.000;2023-05-01T07:02:20;5.50;;;3.57;;
75772;SDS011;64381;0.000;0.000;2023-05-01T07:04:45;5.47;;;3.70;;
75772;SDS011;64381;0.000;0.000;2023-05-01T07:07:10;5.97;;;3.70;;
75772;SDS011;64381;0.000;0.000;2023-05-01T07:09:36;6.63;;;3.50;;
75772;SDS011;64381;0.000;0.000;2023-05-01T07:12:01;5.37;;;3.50;;
75772;SDS011;64381;0.000;0.000;2023-05-01T07:14:26;5.97;;;3.53;;
75772;SDS011;64381;0.000;0.000;2023-05-01T07:16:51;5.20;;;3.40;;
75772;SDS011;64381;0.000;0.000;2023-05-01T07:19:16;5.93;;;3.60;;
75772;SDS011;64381;0.000;0.000;2023-05-01T07:21:42;5.60;;;3.53;;
75772;SDS011;64381;0.000;0.000;2023-05-01T07:24:07;4.87;;;3.27;;
75772;SDS011;64381;0.000;0.000;2023-05-01T07:26:32;6.50;;;3.87;;
75772;SDS011;64381;0.000;0.000;2023-05-01T07:28:57;5.50;;;3.37;;
75772;SDS011;64381;0.000;0.000;2023-05-01T07:31:22;5.37;;;3.30;;
75772;SDS011;64381;0.000;0.000;2023-05-01T07:33:48;6.80;;;3.83;;
75772;SDS011;64381;0.000;0.000;2023-05-01T07:36:13;5.20;;;3.40;;
75772;SDS011;64381;0.000;0.000;2023-05-01T07:38:38;6.27;;;3.73;;
75772;SDS011;64381;0.000;0.000;2023-05-01T07:41:04;5.83;;;3.60;;
75772;SDS011;64381;0.000;0.000;2023-05-01T07:43:29;6.00;;;3.60;;
75772;SDS011;64381;0.000;0.000;2023-05-01T07:45:55;5.50;;;3.43;;
75772;SDS011;64381;0.000;0.000;2023-05-01T07:48:21;5.72;;;3.13;;
75772;SDS011;64381;0.000;0.000;2023-05-01T07:50:46;4.90;;;3.20;;
75772;SDS011;64381;0.000;0.000;2023-05-01T07:53:12;5.90;;;3.60;;
75772;SDS011;64381;0.000;0.000;2023-05-01T07:55:37;5.57;;;3.40;;
75772;SDS011;64381;0.000;0.000;2023-05-01T07:58:02;6.50;;;3.57;;
75772;SDS011;64381;0.000;0.000;2023-05-01T08:00:27;5.47;;;3.10;;
75772;SDS011;64381;0.000;0.000;2023-05-01T08:02:53;5.97;;;3.65;;
75772;SDS011;64381;0.000;0.000;2023-05-01T08:05:18;4.87;;;3.17;;
75772;SDS011;64381;0.000;0.000;2023-05-01T08:07:44;5.63;;;3.20;;
75772;SDS011;64381;0.000;0.000;2023-05-01T08:10:09;5.60;;;3.57;;
75772;SDS011;64381;0.000;0.000;2023-05-01T08:12:34;4.70;;;3.20;;
75772;SDS011;64381;0.000;0.000;2023-05-01T08:14:59;5.23;;;3.33;;
75772;SDS011;64381;0.000;0.000;2023-05-01T08:17:25;5.47;;;3.20;;
75772;SDS011;64381;0.000;0.000;2023-05-01T08:19:50;6.00;;;3.50;;
75772;SDS011;64381;0.000;0.000;2023-05-01T08:22:15;6.37;;;3.20;;
75772;SDS011;64381;0.000;0.000;2023-05-01T08:24:40;7.20;;;3.40;;
75772;SDS011;64381;0.000;0.000;2023-05-01T08:27:05;4.90;;;3.30;;
75772;SDS011;64381;0.000;0.000;2023-05-01T08:29:31;5.73;;;3.23;;
75772;SDS011;64381;0.000;0.000;2023-05-01T08:31:57;5.93;;;3.40;;
75772;SDS011;64381;0.000;0.000;2023-05-01T08:34:22;5.07;;;3.20;;
75772;SDS011;64381;0.000;0.000;2023-05-01T08:36:47;5.20;;;3.37;;
75772;SDS011;64381;0.000;0.000;2023-05-01T08:39:12;5.63;;;3.47;;
75772;SDS011;64381;0.000;0.000;2023-05-01T08:41:38;5.37;;;3.43;;
75772;SDS011;64381;0.000;0.000;2023-05-01T08:44:05;5.27;;;3.13;;
75772;SDS011;64381;0.000;0.000;2023-05-01T08:49:30;5.38;;;3.42;;
75772;SDS011;64381;0.000;0.000;2023-05-01T08:51:57;6.55;;;3.63;;
75772;SDS011;64381;0.000;0.000;2023-05-01T08:54:23;5.90;;;3.17;;
75772;SDS011;64381;0.000;0.000;2023-05-01T08:56:51;6.07;;;3.40;;
75772;SDS011;64381;0.000;0.000;2023-05-01T08:59:17;6.40;;;3.88;;
75772;SDS011;64381;0.000;0.000;2023-05-01T09:01:43;5.45;;;3.40;;
75772;SDS011;64381;0.000;0.000;2023-05-01T09:04:09;6.25;;;3.60;;
75772;SDS011;64381;0.000;0.000;2023-05-01T09:06:35;5.47;;;3.30;;
75772;SDS011;64381;0.000;0.000;2023-05-01T09:09:00;5.03;;;3.30;;
75772;SDS011;64381;0.000;0.000;2023-05-01T09:11:26;5.43;;;3.30;;
75772;SDS011;64381;0.000;0.000;2023-05-01T09:13:51;5.55;;;3.30;;
75772;SDS011;64381;0.000;0.000;2023-05-01T09:16:17;5.00;;;3.30;;
75772;SDS011;64381;0.000;0.000;2023-05-01T09:18:43;5.82;;;3.40;;
75772;SDS011;64381;0.000;0.000;2023-05-01T09:21:08;4.97;;;3.17;;
75772;SDS011;64381;0.000;0.000;2023-05-01T09:23:34;6.33;;;3.73;;
75772;SDS011;64381;0.000;0.000;2023-05-01T09:25:59;5.30;;;3.50;;
75772;SDS011;64381;0.000;0.000;2023-05-01T09:28:43;5.80;;;3.47;;
75772;SDS011;64381;0.000;0.000;2023-05-01T09:31:26;6.05;;;3.60;;
75772;SDS011;64381;0.000;0.000;2023-05-01T09:33:53;5.83;;;3.50;;
75772;SDS011;64381;0.000;0.000;2023-05-01T09:36:19;5.38;;;3.47;;
75772;SDS011;64381;0.000;0.000;2023-05-01T09:38:45;5.55;;;3.33;;
75772;SDS011;64381;0.000;0.000;2023-05-01T09:41:11;5.90;;;3.30;;
75772;SDS011;64381;0.000;0.000;2023-05-01T09:43:36;6.07;;;3.20;;
75772;SDS011;64381;0.000;0.000;2023-05-01T09:46:02;5.70;;;3.47;;
75772;SDS011;64381;0.000;0.000;2023-05-01T09:48:28;5.82;;;3.55;;
75772;SDS011;64381;0.000;0.000;2023-05-01T09:50:53;7.00;;;3.60;;
75772;SDS011;64381;0.000;0.000;2023-05-01T09:53:18;5.67;;;3.60;;
75772;SDS011;64381;0.000;0.000;2023-05-01T09:56:00;7.78;;;4.18;;
75772;SDS011;64381;0.000;0.000;2023-05-01T09:58:25;6.03;;;3.97;;
75772;SDS011;64381;0.000;0.000;2023-05-01T10:00:51;7.65;;;4.47;;
75772;SDS011;64381;0.000;0.000;2023-05-01T10:03:16;8.50;;;4.53;;
75772;SDS011;64381;0.000;0.000;2023-05-01T10:05:42;6.67;;;4.10;;
75772;SDS011;64381;0.000;0.000;2023-05-01T10:08:07;6.70;;;4.20;;
75772;SDS011;64381;0.000;0.000;2023-05-01T10:10:33;6.90;;;4.20;;
75772;SDS011;64381;0.000;0.000;2023-05-01T10:13:14;7.00;;;4.45;;
75772;SDS011;64381;0.000;0.000;2023-05-01T10:15:40;7.67;;;4.20;;
75772;SDS011;64381;0.000;0.000;2023-05-01T10:18:06;7.07;;;4.30;;
75772;SDS011;64381;0.000;0.000;2023-05-01T10:20:34;6.78;;;4.25;;
75772;SDS011;64381;0.000;0.000;2023-05-01T10:23:00;6.50;;;4.30;;
75772;SDS011;64381;0.000;0.000;2023-05-01T10:25:26;6.77;;;4.40;;
75772;SDS011;64381;0.000;0.000;2023-05-01T10:27:52;8.25;;;4.30;;
75772;SDS011;64381;0.000;0.000;2023-05-01T10:30:19;6.53;;;4.28;;
75772;SDS011;64381;0.000;0.000;2023-05-01T10:32:45;7.25;;;4.18;;
75772;SDS011;64381;0.000;0.000;2023-05-01T10:35:12;6.07;;;4.10;;
75772;SDS011;64381;0.000;0.000;2023-05-01T10:37:46;7.43;;;4.30;;
75772;SDS011;64381;0.000;0.000;2023-05-01T10:45:44;7.57;;;4.30;;
75772;SDS011;64381;0.000;0.000;2023-05-01T10:51:06;7.32;;;4.00;;
75772;SDS011;64381;0.000;0.000;2023-05-01T10:53:48;6.47;;;4.25;;
75772;SDS011;64381;0.000;0.000;2023-05-01T10:58:59;5.93;;;4.27;;
75772;SDS011;64381;0.000;0.000;2023-05-01T11:01:29;7.35;;;4.32;;
75772;SDS011;64381;0.000;0.000;2023-05-01T11:03:56;6.68;;;4.47;;
75772;SDS011;64381;0.000;0.000;2023-05-01T11:06:23;7.40;;;4.57;;
75772;SDS011;64381;0.000;0.000;2023-05-01T11:08:48;6.03;;;4.40;;
75772;SDS011;64381;0.000;0.000;2023-05-01T11:14:00;7.18;;;4.93;;
75772;SDS011;64381;0.000;0.000;2023-05-01T11:21:32;7.50;;;4.73;;
75772;SDS011;64381;0.000;0.000;2023-05-01T11:23:59;8.15;;;5.35;;
75772;SDS011;64381;0.000;0.000;2023-05-01T11:26:25;7.45;;;4.82;;
75772;SDS011;64381;0.000;0.000;2023-05-01T11:28:53;6.63;;;4.75;;
75772;SDS011;64381;0.000;0.000;2023-05-01T11:31:19;6.90;;;4.55;;
75772;SDS011;64381;0.000;0.000;2023-05-01T11:33:45;7.37;;;4.70;;
75772;SDS011;64381;0.000;0.000;2023-05-01T11:36:10;7.20;;;4.77;;
75772;SDS011;64381;0.000;0.000;2023-05-01T11:38:35;6.17;;;4.20;;
75772;SDS011;64381;0.000;0.000;2023-05-01T11:41:01;6.83;;;4.77;;
75772;SDS011;64381;0.000;0.000;2023-05-01T11:43:27;6.50;;;4.70;;
75772;SDS011;64381;0.000;0.000;2023-05-01T11:45:52;8.03;;;5.07;;
75772;SDS011;64381;0.000;0.000;2023-05-01T11:48:18;7.68;;;4.68;;
75772;SDS011;64381;0.000;0.000;2023-05-01T11:50:45;6.95;;;4.90;;
75772;SDS011;64381;0.000;0.000;2023-05-01T11:53:10;6.77;;;4.80;;
75772;SDS011;64381;0.000;0.000;2023-05-01T11:55:37;8.30;;;4.97;;
75772;SDS011;64381;0.000;0.000;2023-05-01T11:58:02;7.75;;;4.57;;
75772;SDS011;64381;0.000;0.000;2023-05-01T12:00:29;7.83;;;5.00;;
75772;SDS011;64381;0.000;0.000;2023-05-01T12:02:59;6.50;;;4.70;;
75772;SDS011;64381;0.000;0.000;2023-05-01T12:05:26;8.02;;;5.05;;
75772;SDS011;64381;0.000;0.000;2023-05-01T12:08:14;6.70;;;5.03;;
75772;SDS011;64381;0.000;0.000;2023-05-01T12:10:41;7.20;;;4.65;;
75772;SDS011;64381;0.000;0.000;2023-05-01T12:13:08;6.70;;;4.87;;
75772;SDS011;64381;0.000;0.000;2023-05-01T12:15:35;7.18;;;5.30;;
75772;SDS011;64381;0.000;0.000;2023-05-01T12:18:01;6.65;;;4.97;;
75772;SDS011;64381;0.000;0.000;2023-05-01T12:20:37;6.93;;;4.80;;
75772;SDS011;64381;0.000;0.000;2023-05-01T12:23:04;7.28;;;5.00;;
75772;SDS011;64381;0.000;0.000;2023-05-01T12:25:31;7.50;;;5.20;;
75772;SDS011;64381;0.000;0.000;2023-05-01T12:27:57;7.47;;;5.20;;
75772;SDS011;64381;0.000;0.000;2023-05-01T12:30:26;7.00;;;4.77;;
75772;SDS011;64381;0.000;0.000;2023-05-01T12:32:51;7.07;;;5.00;;
75772;SDS011;64381;0.000;0.000;2023-05-01T12:35:17;7.57;;;5.10;;
75772;SDS011;64381;0.000;0.000;2023-05-01T12:37:42;7.30;;;4.83;;
75772;SDS011;64381;0.000;0.000;2023-05-01T12:40:13;7.90;;;5.00;;
75772;SDS011;64381;0.000;0.000;2023-05-01T12:42:39;9.07;;;5.47;;
75772;SDS011;64381;0.000;0.000;2023-05-01T12:45:05;6.87;;;4.83;;
75772;SDS011;64381;0.000;0.000;2023-05-01T12:47:35;7.30;;;4.90;;
75772;SDS011;64381;0.000;0.000;2023-05-01T12:50:01;6.90;;;4.72;;
75772;SDS011;64381;0.000;0.000;2023-05-01T12:52:27;7.10;;;4.90;;
75772;SDS011;64381;0.000;0.000;2023-05-01T12:55:00;11.20;;;5.43;;
75772;SDS011;64381;0.000;0.000;2023-05-01T12:57:29;7.22;;;4.90;;
75772;SDS011;64381;0.000;0.000;2023-05-01T12:59:59;8.47;;;5.27;;
75772;SDS011;64381;0.000;0.000;2023-05-01T13:02:29;10.88;;;5.13;;
75772;SDS011;64381;0.000;0.000;2023-05-01T13:05:04;8.27;;;4.85;;
75772;SDS011;64381;0.000;0.000;2023-05-01T13:07:34;8.02;;;4.88;;
75772;SDS011;64381;0.000;0.000;2023-05-01T13:10:00;8.80;;;5.18;;
75772;SDS011;64381;0.000;0.000;2023-05-01T13:12:27;11.80;;;5.30;;
75772;SDS011;64381;0.000;0.000;2023-05-01T13:14:52;6.70;;;4.85;;
75772;SDS011;64381;0.000;0.000;2023-05-01T13:17:22;9.63;;;5.07;;
75772;SDS011;64381;0.000;0.000;2023-05-01T13:19:57;8.20;;;4.97;;
75772;SDS011;64381;0.000;0.000;2023-05-01T13:22:30;7.18;;;4.65;;
75772;SDS011;64381;0.000;0.000;2023-05-01T13:24:56;7.07;;;4.85;;
75772;SDS011;64381;0.000;0.000;2023-05-01T13:27:22;7.10;;;4.83;;
75772;SDS011;64381;0.000;0.000;2023-05-01T13:29:54;8.03;;;5.30;;
75772;SDS011;64381;0.000;0.000;2023-05-01T13:32:20;8.63;;;4.88;;
75772;SDS011;64381;0.000;0.000;2023-05-01T13:34:45;8.73;;;5.00;;
75772;SDS011;64381;0.000;0.000;2023-05-01T13:37:11;7.50;;;4.30;;
75772;SDS011;64381;0.000;0.000;2023-05-01T13:39:37;7.50;;;4.75;;
75772;SDS011;64381;0.000;0.000;2023-05-01T13:42:05;8.27;;;4.80;;
75772;SDS011;64381;0.000;0.000;2023-05-01T13:44:31;6.37;;;4.60;;
75772;SDS011;64381;0.000;0.000;2023-05-01T13:46:56;7.43;;;5.00;;
75772;SDS011;64381;0.000;0.000;2023-05-01T13:49:21;7.10;;;4.90;;
75772;SDS011;64381;0.000;0.000;2023-05-01T13:51:46;7.17;;;4.87;;
75772;SDS011;64381;0.000;0.000;2023-05-01T13:54:12;7.43;;;4.73;;
75772;SDS011;64381;0.000;0.000;2023-05-01T13:56:38;7.63;;;4.80;;
75772;SDS011;64381;0.000;0.000;2023-05-01T13:59:04;7.03;;;4.50;;
75772;SDS011;64381;0.000;0.000;2023-05-01T14:01:30;9.07;;;5.10;;
75772;SDS011;64381;0.000;0.000;2023-05-01T14:03:55;6.77;;;4.40;;
75772;SDS011;64381;0.000;0.000;2023-05-01T14:06:21;8.00;;;4.90;;
75772;SDS011;64381;0.000;0.000;2023-05-01T14:08:47;8.80;;;5.23;;
75772;SDS011;64381;0.000;0.000;2023-05-01T14:11:13;7.15;;;4.60;;
75772;SDS011;64381;0.000;0.000;2023-05-01T14:13:42;6.75;;;4.63;;
75772;SDS011;64381;0.000;0.000;2023-05-01T14:16:09;6.68;;;4.30;;
75772;SDS011;64381;0.000;0.000;2023-05-01T14:18:42;6.90;;;4.60;;
75772;SDS011;64381;0.000;0.000;2023-05-01T14:21:12;8.82;;;4.65;;
75772;SDS011;64381;0.000;0.000;2023-05-01T14:23:38;7.47;;;5.05;;
75772;SDS011;64381;0.000;0.000;2023-05-01T14:26:03;7.57;;;4.70;;
75772;SDS011;64381;0.000;0.000;2023-05-01T14:28:29;9.03;;;4.60;;
75772;SDS011;64381;0.000;0.000;2023-05-01T14:30:55;7.30;;;4.82;;
75772;SDS011;64381;0.000;0.000;2023-05-01T14:33:20;7.73;;;4.73;;
75772;SDS011;64381;0.000;0.000;2023-05-01T14:35:49;7.00;;;5.00;;
75772;SDS011;64381;0.000;0.000;2023-05-01T14:38:16;7.32;;;4.63;;
75772;SDS011;64381;0.000;0.000;2023-05-01T14:40:43;8.18;;;4.80;;
75772;SDS011;64381;0.000;0.000;2023-05-01T14:43:09;7.40;;;4.70;;
75772;SDS011;64381;0.000;0.000;2023-05-01T14:45:36;7.15;;;4.57;;
75772;SDS011;64381;0.000;0.000;2023-05-01T14:48:05;7.20;;;4.60;;
75772;SDS011;64381;0.000;0.000;2023-05-01T14:50:30;7.47;;;4.67;;
75772;SDS011;64381;0.000;0.000;2023-05-01T14:52:56;14.73;;;6.30;;
75772;SDS011;64381;0.000;0.000;2023-05-01T14:55:30;11.23;;;6.88;;
75772;SDS011;64381;0.000;0.000;2023-05-01T14:57:56;10.70;;;6.40;;
75772;SDS011;64381;0.000;0.000;2023-05-01T15:00:22;9.30;;;6.10;;
75772;SDS011;64381;0.000;0.000;2023-05-01T15:02:47;11.82;;;6.55;;
75772;SDS011;64381;0.000;0.000;2023-05-01T15:05:13;10.90;;;6.50;;
75772;SDS011;64381;0.000;0.000;2023-05-01T15:07:39;13.20;;;6.70;;
75772;SDS011;64381;0.000;0.000;2023-05-01T15:10:04;12.10;;;6.57;;
75772;SDS011;64381;0.000;0.000;2023-05-01T15:12:29;11.70;;;6.50;;
75772;SDS011;64381;0.000;0.000;2023-05-01T15:14:55;13.20;;;6.70;;
75772;SDS011;64381;0.000;0.000;2023-05-01T15:17:20;12.60;;;6.83;;
75772;SDS011;64381;0.000;0.000;2023-05-01T15:19:45;11.93;;;6.53;;
75772;SDS011;64381;0.000;0.000;2023-05-01T15:22:10;14.40;;;7.13;;
75772;SDS011;64381;0.000;0.000;2023-05-01T15:24:36;13.90;;;6.83;;
75772;SDS011;64381;0.000;0.000;2023-05-01T15:27:01;13.53;;;6.97;;
75772;SDS011;64381;0.000;0.000;2023-05-01T15:29:26;14.70;;;7.33;;
75772;SDS011;64381;0.000;0.000;2023-05-01T15:31:51;17.10;;;7.67;;
75772;SDS011;64381;0.000;0.000;2023-05-01T15:34:16;13.53;;;7.77;;